createdAt,value
2019-01-03T00:00:21.628Z,12.50
2019-01-03T00:01:21.638Z,17.70
2019-01-03T00:02:21.652Z,19.80
2019-01-03T00:03:21.667Z,17.50
2019-01-03T00:04:21.683Z,18.90
2019-01-03T00:05:21.696Z,18.40
2019-01-03T00:06:21.708Z,16.00
2019-01-03T00:07:21.724Z,18.30
2019-01-03T00:08:21.738Z,15.60
2019-01-03T00:09:21.749Z,17.10
2019-01-03T00:10:21.766Z,17.50
2019-01-03T00:11:21.780Z,16.90
2019-01-03T00:12:21.792Z,14.50
2019-01-03T00:13:21.809Z,18.90
2019-01-03T00:14:21.821Z,18.20
2019-01-03T00:15:21.836Z,15.30
2019-01-03T00:16:21.849Z,15.70
2019-01-03T00:17:21.864Z,19.40
2019-01-03T00:18:21.877Z,17.00
2019-01-03T00:19:21.891Z,19.20
2019-01-03T00:20:21.907Z,17.70
2019-01-03T00:21:21.919Z,17.10
2019-01-03T00:22:21.931Z,17.40
2019-01-03T00:23:21.948Z,12.50
2019-01-03T00:24:21.958Z,15.40
2019-01-03T00:25:21.971Z,14.40
2019-01-03T00:26:21.988Z,19.70
2019-01-03T00:27:22.002Z,13.50
2019-01-03T00:28:22.017Z,15.00
2019-01-03T00:29:22.033Z,20.00
2019-01-03T00:30:22.043Z,21.00
2019-01-03T00:31:22.055Z,17.60
2019-01-03T00:32:22.072Z,13.70
2019-01-03T00:33:22.082Z,20.30
2019-01-03T00:34:22.098Z,19.00
2019-01-03T00:35:22.110Z,16.30
2019-01-03T00:36:22.124Z,15.60
2019-01-03T00:37:22.137Z,15.70
2019-01-03T00:38:22.151Z,22.10
2019-01-03T00:39:22.170Z,18.10
2019-01-03T00:40:22.185Z,18.90
2019-01-03T00:41:22.193Z,15.50
2019-01-03T00:42:22.207Z,20.20
2019-01-03T00:43:22.227Z,17.00
2019-01-03T00:44:22.235Z,16.20
2019-01-03T00:45:22.248Z,17.70
2019-01-03T00:46:22.264Z,18.20
2019-01-03T00:47:22.276Z,20.90
2019-01-03T00:48:22.291Z,16.50
2019-01-03T00:49:22.306Z,14.40
2019-01-03T00:50:22.318Z,18.60
2019-01-03T00:51:22.334Z,18.60
2019-01-03T00:52:22.347Z,16.10
2019-01-03T00:53:22.362Z,16.80
2019-01-03T00:54:22.375Z,17.20
2019-01-03T00:55:22.390Z,18.30
2019-01-03T00:56:22.404Z,11.30
2019-01-03T00:57:22.417Z,16.40
2019-01-03T00:58:22.433Z,22.20
2019-01-03T00:59:22.445Z,15.20
2019-01-03T01:00:22.459Z,19.00
2019-01-03T01:01:22.473Z,18.90
2019-01-03T01:02:22.485Z,13.70
2019-01-03T01:03:22.501Z,19.30
2019-01-03T01:04:22.515Z,11.70
2019-01-03T01:05:22.528Z,13.60
2019-01-03T01:06:22.541Z,16.50
2019-01-03T01:07:22.557Z,16.70
2019-01-03T01:08:22.568Z,13.10
2019-01-03T01:09:22.581Z,18.20
2019-01-03T01:10:22.595Z,12.90
2019-01-03T01:11:22.612Z,13.00
2019-01-03T01:12:22.624Z,18.80
2019-01-03T01:13:22.639Z,19.00
2019-01-03T01:14:22.651Z,16.90
2019-01-03T01:15:22.669Z,14.50
2019-01-03T01:16:22.680Z,25.30
2019-01-03T01:17:22.694Z,16.30
2019-01-03T01:18:22.706Z,15.70
2019-01-03T01:19:22.722Z,18.10
2019-01-03T01:20:22.738Z,11.60
2019-01-03T01:21:22.748Z,17.00
2019-01-03T01:22:22.764Z,17.40
2019-01-03T01:23:22.778Z,13.30
2019-01-03T01:24:22.790Z,16.10
2019-01-03T01:25:22.806Z,14.20
2019-01-03T01:26:22.821Z,13.80
2019-01-03T01:27:22.833Z,15.90
2019-01-03T01:28:22.849Z,19.40
2019-01-03T01:29:22.859Z,13.40
2019-01-03T01:30:22.874Z,18.10
2019-01-03T01:31:22.893Z,17.70
2019-01-03T01:32:22.905Z,15.80
2019-01-03T01:33:22.916Z,19.90
2019-01-03T01:34:22.930Z,18.40
2019-01-03T01:35:22.944Z,13.40
2019-01-03T01:36:22.961Z,15.40
2019-01-03T01:37:22.971Z,15.40
2019-01-03T01:38:22.991Z,17.40
2019-01-03T01:39:23.002Z,17.10
2019-01-03T01:40:23.014Z,18.60
2019-01-03T01:41:23.029Z,20.80
2019-01-03T01:42:23.044Z,16.10
2019-01-03T01:43:23.058Z,18.60
2019-01-03T01:44:23.070Z,19.80
2019-01-03T01:45:23.085Z,19.10
2019-01-03T01:46:23.099Z,12.70
2019-01-03T01:47:23.113Z,16.20
2019-01-03T01:48:23.126Z,19.00
2019-01-03T01:49:23.143Z,17.00
2019-01-03T01:50:23.157Z,15.50
2019-01-03T01:51:23.170Z,15.00
2019-01-03T01:52:23.185Z,18.10
2019-01-03T01:53:23.197Z,15.80
2019-01-03T01:54:23.212Z,18.90
2019-01-03T01:55:23.223Z,20.00
2019-01-03T01:56:23.241Z,14.90
2019-01-03T01:57:23.253Z,14.40
2019-01-03T01:58:23.267Z,17.90
2019-01-03T01:59:23.283Z,18.30
2019-01-03T02:00:23.294Z,13.90
2019-01-03T02:01:23.309Z,19.00
2019-01-03T02:02:23.323Z,19.50
2019-01-03T02:03:23.339Z,14.70
2019-01-03T02:04:23.353Z,22.10
2019-01-03T02:05:23.363Z,11.50
2019-01-03T02:06:23.380Z,12.00
2019-01-03T02:07:23.396Z,13.40
2019-01-03T02:08:23.409Z,16.70
2019-01-03T02:09:23.423Z,17.90
2019-01-03T02:10:23.436Z,15.20
2019-01-03T02:11:23.447Z,16.20
2019-01-03T02:12:23.461Z,15.80
2019-01-03T02:13:23.476Z,15.70
2019-01-03T02:14:23.492Z,20.10
2019-01-03T02:15:23.503Z,13.50
2019-01-03T02:16:23.522Z,15.10
2019-01-03T02:17:23.532Z,11.70
2019-01-03T02:18:23.546Z,16.10
2019-01-03T02:19:23.562Z,13.30
2019-01-03T02:20:23.577Z,16.70
2019-01-03T02:21:23.586Z,17.80
2019-01-03T02:22:23.602Z,16.90
2019-01-03T02:23:23.615Z,17.10
2019-01-03T02:24:23.630Z,19.20
2019-01-03T02:25:23.643Z,16.40
2019-01-03T02:26:23.658Z,16.00
2019-01-03T02:27:23.672Z,11.20
2019-01-03T02:28:23.688Z,12.70
2019-01-03T02:29:23.701Z,14.60
2019-01-03T02:30:23.715Z,13.90
2019-01-03T02:31:23.729Z,17.20
2019-01-03T02:32:23.742Z,15.80
2019-01-03T02:33:23.755Z,14.70
2019-01-03T02:34:23.771Z,13.00
2019-01-03T02:35:23.782Z,15.30
2019-01-03T02:36:23.797Z,14.80
2019-01-03T02:37:23.825Z,21.80
2019-01-03T02:38:23.830Z,15.20
2019-01-03T02:39:23.841Z,14.50
2019-01-03T02:40:23.854Z,15.60
2019-01-03T02:41:23.867Z,14.50
2019-01-03T02:42:23.881Z,16.90
2019-01-03T02:43:23.895Z,14.20
2019-01-03T02:44:23.908Z,14.80
2019-01-03T02:45:23.927Z,14.50
2019-01-03T02:46:23.946Z,11.10
2019-01-03T02:47:23.952Z,11.30
2019-01-03T02:48:23.967Z,12.00
2019-01-03T02:49:23.987Z,16.10
2019-01-03T02:50:23.994Z,12.10
2019-01-03T02:51:24.009Z,13.60
2019-01-03T02:52:24.023Z,9.50
2019-01-03T02:53:24.036Z,13.60
2019-01-03T02:54:24.051Z,13.60
2019-01-03T02:55:24.063Z,16.60
2019-01-03T02:56:24.077Z,15.90
2019-01-03T02:57:24.089Z,15.10
2019-01-03T02:58:24.104Z,18.00
2019-01-03T02:59:24.118Z,11.70
2019-01-03T03:00:24.132Z,13.20
2019-01-03T03:01:24.147Z,16.30
2019-01-03T03:02:24.160Z,12.70
2019-01-03T03:03:24.173Z,10.70
2019-01-03T03:04:24.233Z,16.00
2019-01-03T03:05:24.204Z,13.90
2019-01-03T03:06:24.218Z,14.30
2019-01-03T03:07:24.230Z,12.00
2019-01-03T03:08:24.247Z,12.30
2019-01-03T03:09:24.261Z,16.20
2019-01-03T03:10:24.271Z,18.30
2019-01-03T03:11:24.288Z,15.30
2019-01-03T03:12:24.307Z,15.10
2019-01-03T03:13:24.315Z,13.90
2019-01-03T03:14:24.328Z,10.70
2019-01-03T03:15:24.345Z,13.50
2019-01-03T03:16:24.358Z,14.10
2019-01-03T03:17:24.373Z,14.10
2019-01-03T03:18:24.388Z,13.60
2019-01-03T03:19:24.398Z,12.20
2019-01-03T03:20:24.412Z,11.10
2019-01-03T03:21:24.429Z,11.50
2019-01-03T03:22:24.441Z,10.90
2019-01-03T03:23:24.455Z,9.00
2019-01-03T03:24:24.476Z,10.40
2019-01-03T03:25:24.483Z,10.10
2019-01-03T03:26:24.498Z,12.00
2019-01-03T03:27:24.513Z,17.10
2019-01-03T03:28:24.525Z,12.40
2019-01-03T03:29:24.542Z,10.20
2019-01-03T03:30:24.554Z,12.50
2019-01-03T03:31:24.571Z,14.00
2019-01-03T03:32:24.583Z,13.10
2019-01-03T03:33:24.597Z,7.80
2019-01-03T03:34:24.614Z,10.40
2019-01-03T03:35:24.631Z,11.60
2019-01-03T03:36:24.638Z,10.70
2019-01-03T03:37:24.652Z,11.10
2019-01-03T03:38:24.667Z,11.50
2019-01-03T03:39:24.684Z,10.60
2019-01-03T03:40:24.694Z,7.40
2019-01-03T03:41:24.716Z,14.10
2019-01-03T03:42:24.726Z,10.80
2019-01-03T03:43:24.737Z,12.20
2019-01-03T03:44:24.750Z,13.80
2019-01-03T03:45:24.766Z,9.30
2019-01-03T03:46:24.782Z,9.00
2019-01-03T03:47:24.792Z,9.70
2019-01-03T03:48:24.815Z,8.90
2019-01-03T03:49:24.880Z,9.00
2019-01-03T03:50:24.836Z,14.90
2019-01-03T03:51:24.849Z,10.30
2019-01-03T03:52:24.863Z,9.10
2019-01-03T03:53:24.881Z,12.80
2019-01-03T03:54:24.892Z,12.90
2019-01-03T03:55:24.905Z,15.70
2019-01-03T03:56:24.925Z,7.70
2019-01-03T03:57:24.937Z,11.20
2019-01-03T03:58:24.948Z,12.80
2019-01-03T03:59:24.962Z,9.60
2019-01-03T04:00:24.979Z,10.30
2019-01-03T04:01:24.989Z,10.10
2019-01-03T04:02:25.004Z,14.90
2019-01-03T04:03:25.019Z,10.00
2019-01-03T04:04:25.034Z,7.40
2019-01-03T04:05:25.048Z,11.30
2019-01-03T04:06:25.060Z,11.70
2019-01-03T04:07:25.077Z,9.90
2019-01-03T04:08:25.091Z,10.70
2019-01-03T04:09:25.102Z,12.60
2019-01-03T04:10:25.116Z,14.80
2019-01-03T04:11:25.132Z,12.00
2019-01-03T04:12:25.150Z,9.90
2019-01-03T04:13:25.160Z,11.50
2019-01-03T04:14:25.176Z,12.00
2019-01-03T04:15:25.188Z,12.60
2019-01-03T04:16:25.204Z,10.30
2019-01-03T04:17:25.214Z,13.90
2019-01-03T04:18:25.234Z,7.20
2019-01-03T04:19:25.243Z,12.20
2019-01-03T04:20:26.837Z,10.80
2019-01-03T04:21:25.274Z,13.50
2019-01-03T04:22:25.285Z,13.80
2019-01-03T04:23:25.301Z,14.80
2019-01-03T04:24:25.386Z,12.30
2019-01-03T04:25:25.327Z,13.00
2019-01-03T04:26:25.345Z,10.90
2019-01-03T04:27:25.355Z,10.20
2019-01-03T04:28:25.372Z,8.40
2019-01-03T04:29:25.388Z,13.80
2019-01-03T04:30:25.401Z,10.00
2019-01-03T04:31:25.413Z,5.90
2019-01-03T04:32:25.426Z,9.00
2019-01-03T04:33:25.443Z,8.50
2019-01-03T04:34:25.454Z,10.00
2019-01-03T04:35:25.468Z,13.70
2019-01-03T04:36:25.482Z,12.00
2019-01-03T04:37:25.499Z,11.10
2019-01-03T04:38:25.511Z,10.70
2019-01-03T04:39:25.524Z,10.80
2019-01-03T04:40:25.543Z,8.80
2019-01-03T04:41:25.554Z,8.10
2019-01-03T04:42:25.566Z,10.50
2019-01-03T04:43:25.583Z,8.90
2019-01-03T04:44:25.598Z,5.90
2019-01-03T04:45:25.610Z,10.80
2019-01-03T04:46:25.624Z,9.50
2019-01-03T04:47:25.640Z,9.50
2019-01-03T04:48:25.650Z,10.50
2019-01-03T04:49:25.668Z,9.80
2019-01-03T04:50:25.681Z,8.60
2019-01-03T04:51:25.692Z,8.10
2019-01-03T04:52:25.709Z,8.20
2019-01-03T04:53:25.725Z,9.60
2019-01-03T04:54:25.741Z,7.60
2019-01-03T04:55:25.754Z,11.00
2019-01-03T04:56:25.764Z,8.10
2019-01-03T04:57:25.779Z,16.80
2019-01-03T04:58:25.792Z,11.70
2019-01-03T04:59:25.808Z,11.60
2019-01-03T05:00:25.823Z,10.80
2019-01-03T05:01:25.835Z,11.70
2019-01-03T05:02:25.852Z,7.90
2019-01-03T05:03:25.869Z,11.40
2019-01-03T05:04:25.877Z,7.00
2019-01-03T05:05:25.894Z,12.20
2019-01-03T05:06:25.906Z,12.10
2019-01-03T05:07:25.919Z,10.40
2019-01-03T05:08:25.937Z,8.20
2019-01-03T05:09:25.950Z,12.30
2019-01-03T05:10:25.964Z,12.10
2019-01-03T05:11:25.979Z,6.40
2019-01-03T05:12:25.990Z,7.00
2019-01-03T05:13:26.005Z,6.60
2019-01-03T05:14:26.018Z,13.30
2019-01-03T05:15:26.034Z,11.50
2019-01-03T05:16:26.046Z,14.10
2019-01-03T05:17:26.063Z,9.30
2019-01-03T05:18:26.078Z,9.80
2019-01-03T05:19:26.090Z,7.10
2019-01-03T05:20:26.105Z,9.20
2019-01-03T05:21:26.119Z,11.10
2019-01-03T05:22:26.133Z,12.40
2019-01-03T05:23:26.144Z,8.50
2019-01-03T05:24:26.161Z,9.70
2019-01-03T05:25:26.172Z,17.20
2019-01-03T05:26:26.189Z,7.50
2019-01-03T05:27:26.213Z,12.30
2019-01-03T05:28:26.217Z,12.90
2019-01-03T05:29:26.231Z,6.70
2019-01-03T05:30:26.244Z,9.80
2019-01-03T05:31:26.258Z,10.60
2019-01-03T05:32:26.274Z,9.10
2019-01-03T05:33:26.297Z,12.70
2019-01-03T05:34:26.306Z,5.80
2019-01-03T05:35:26.321Z,11.30
2019-01-03T05:36:26.330Z,12.50
2019-01-03T05:37:26.342Z,14.30
2019-01-03T05:38:26.355Z,12.40
2019-01-03T05:39:26.373Z,9.20
2019-01-03T05:40:26.386Z,9.20
2019-01-03T05:41:26.399Z,5.30
2019-01-03T05:42:26.415Z,7.30
2019-01-03T05:43:26.428Z,13.10
2019-01-03T05:44:26.443Z,11.90
2019-01-03T05:45:26.453Z,13.40
2019-01-03T05:46:27.971Z,14.60
2019-01-03T05:47:26.483Z,11.40
2019-01-03T05:48:26.500Z,8.90
2019-01-03T05:49:26.512Z,12.60
2019-01-03T05:50:26.524Z,11.90
2019-01-03T05:51:26.538Z,9.10
2019-01-03T05:52:26.553Z,9.00
2019-01-03T05:53:26.569Z,13.70
2019-01-03T05:54:26.580Z,11.20
2019-01-03T05:55:26.596Z,14.30
2019-01-03T05:56:26.611Z,11.60
2019-01-03T05:57:26.624Z,9.50
2019-01-03T05:58:26.640Z,9.20
2019-01-03T05:59:26.650Z,12.20
2019-01-03T06:00:26.665Z,13.60
2019-01-03T06:01:26.678Z,12.40
2019-01-03T06:02:26.694Z,10.00
2019-01-03T06:03:26.708Z,11.80
2019-01-03T06:04:26.725Z,13.40
2019-01-03T06:05:26.734Z,14.70
2019-01-03T06:06:26.749Z,12.80
2019-01-03T06:07:26.765Z,12.70
2019-01-03T06:08:26.782Z,14.70
2019-01-03T06:09:26.790Z,8.60
2019-01-03T06:10:26.807Z,7.70
2019-01-03T06:11:26.821Z,8.00
2019-01-03T06:12:26.838Z,14.10
2019-01-03T06:13:26.848Z,17.80
2019-01-03T06:14:26.867Z,11.80
2019-01-03T06:15:26.875Z,7.50
2019-01-03T06:16:26.889Z,11.00
2019-01-03T06:17:26.904Z,11.60
2019-01-03T06:18:26.916Z,7.70
2019-01-03T06:19:26.932Z,9.90
2019-01-03T06:20:26.945Z,13.80
2019-01-03T06:21:26.966Z,11.20
2019-01-03T06:22:26.974Z,7.50
2019-01-03T06:23:26.990Z,10.20
2019-01-03T06:24:27.010Z,11.10
2019-01-03T06:25:27.022Z,7.00
2019-01-03T06:26:27.029Z,10.70
2019-01-03T06:27:27.050Z,13.00
2019-01-03T06:28:27.057Z,10.90
2019-01-03T06:29:27.075Z,12.40
2019-01-03T06:30:27.087Z,10.50
2019-01-03T06:31:27.101Z,12.10
2019-01-03T06:32:27.115Z,14.40
2019-01-03T06:33:27.130Z,9.20
2019-01-03T06:34:27.141Z,15.70
2019-01-03T06:35:27.157Z,10.30
2019-01-03T06:36:27.170Z,11.30
2019-01-03T06:37:27.183Z,8.50
2019-01-03T06:38:27.200Z,12.00
2019-01-03T06:39:27.211Z,14.00
2019-01-03T06:40:27.225Z,13.10
2019-01-03T06:41:27.239Z,10.20
2019-01-03T06:42:27.255Z,16.80
2019-01-03T06:43:27.271Z,16.70
2019-01-03T06:44:27.282Z,7.20
2019-01-03T06:45:27.297Z,9.80
2019-01-03T06:46:27.309Z,9.40
2019-01-03T06:47:27.325Z,10.40
2019-01-03T06:48:27.340Z,8.90
2019-01-03T06:49:27.353Z,9.00
2019-01-03T06:50:27.372Z,6.40
2019-01-03T06:51:27.382Z,8.50
2019-01-03T06:52:27.397Z,9.90
2019-01-03T06:53:27.410Z,8.00
2019-01-03T06:54:27.421Z,10.00
2019-01-03T06:55:27.438Z,9.70
2019-01-03T06:56:27.452Z,11.00
2019-01-03T06:57:27.463Z,9.30
2019-01-03T06:58:27.477Z,7.80
2019-01-03T06:59:27.496Z,10.00
2019-01-03T07:00:27.507Z,10.10
2019-01-03T07:01:27.522Z,10.10
2019-01-03T07:02:27.537Z,9.30
2019-01-03T07:03:27.852Z,10.40
2019-01-03T07:04:27.564Z,9.20
2019-01-03T07:05:27.577Z,9.00
2019-01-03T07:06:27.591Z,8.50
2019-01-03T07:07:27.607Z,6.40
2019-01-03T07:08:27.621Z,10.90
2019-01-03T07:09:27.631Z,10.60
2019-01-03T07:10:27.746Z,12.20
2019-01-03T07:11:27.660Z,14.50
2019-01-03T07:12:27.674Z,9.60
2019-01-03T07:13:27.690Z,10.70
2019-01-03T07:14:27.709Z,8.70
2019-01-03T07:15:27.718Z,11.40
2019-01-03T07:16:27.730Z,8.10
2019-01-03T07:17:27.844Z,10.20
2019-01-03T07:18:27.762Z,10.80
2019-01-03T07:19:27.774Z,11.50
2019-01-03T07:20:27.790Z,8.70
2019-01-03T07:21:27.800Z,10.00
2019-01-03T07:22:27.816Z,8.60
2019-01-03T07:23:27.830Z,8.20
2019-01-03T07:24:27.843Z,6.90
2019-01-03T07:25:27.856Z,6.60
2019-01-03T07:26:27.870Z,10.20
2019-01-03T07:27:27.886Z,6.30
2019-01-03T07:28:27.900Z,7.80
2019-01-03T07:29:27.913Z,9.70
2019-01-03T07:30:27.930Z,10.60
2019-01-03T07:31:27.943Z,7.00
2019-01-03T07:32:27.955Z,9.70
2019-01-03T07:33:27.968Z,9.70
2019-01-03T07:34:27.985Z,10.20
2019-01-03T07:35:27.997Z,8.60
2019-01-03T07:36:28.011Z,10.50
2019-01-03T07:37:28.028Z,8.60
2019-01-03T07:38:28.041Z,9.00
2019-01-03T07:39:28.054Z,10.20
2019-01-03T07:40:28.069Z,6.90
2019-01-03T07:41:28.084Z,5.30
2019-01-03T07:42:28.096Z,7.60
2019-01-03T07:43:28.113Z,11.60
2019-01-03T07:44:28.127Z,8.70
2019-01-03T07:45:28.140Z,10.60
2019-01-03T07:46:28.155Z,12.40
2019-01-03T07:47:28.171Z,11.40
2019-01-03T07:48:28.282Z,12.60
2019-01-03T07:49:28.195Z,13.10
2019-01-03T07:50:28.211Z,7.60
2019-01-03T07:51:28.224Z,12.60
2019-01-03T07:52:28.242Z,6.00
2019-01-03T07:53:28.252Z,5.10
2019-01-03T07:54:28.269Z,5.50
2019-01-03T07:55:28.280Z,5.70
2019-01-03T07:56:28.297Z,8.20
2019-01-03T07:57:28.309Z,7.90
2019-01-03T07:58:28.325Z,12.00
2019-01-03T07:59:28.338Z,11.20
2019-01-03T08:00:28.355Z,10.40
2019-01-03T08:01:28.365Z,8.70
2019-01-03T08:02:28.382Z,7.50
2019-01-03T08:03:28.398Z,6.80
2019-01-03T08:04:28.409Z,7.90
2019-01-03T08:05:28.424Z,9.20
2019-01-03T08:06:28.440Z,7.50
2019-01-03T08:07:28.455Z,6.70
2019-01-03T08:08:28.467Z,7.50
2019-01-03T08:09:28.481Z,6.30
2019-01-03T08:10:28.495Z,12.60
2019-01-03T08:11:28.510Z,7.20
2019-01-03T08:12:28.523Z,6.80
2019-01-03T08:13:28.536Z,6.50
2019-01-03T08:14:28.552Z,10.30
2019-01-03T08:15:28.568Z,10.90
2019-01-03T08:16:28.582Z,12.50
2019-01-03T08:17:28.594Z,8.70
2019-01-03T08:18:28.709Z,7.90
2019-01-03T08:19:28.622Z,6.40
2019-01-03T08:20:28.636Z,9.10
2019-01-03T08:21:28.653Z,7.40
2019-01-03T08:22:28.664Z,7.40
2019-01-03T08:23:28.680Z,7.40
2019-01-03T08:24:28.696Z,10.90
2019-01-03T08:25:28.709Z,10.60
2019-01-03T08:26:28.721Z,4.00
2019-01-03T08:27:28.737Z,6.40
2019-01-03T08:28:28.754Z,7.70
2019-01-03T08:29:28.765Z,7.80
2019-01-03T08:30:28.779Z,5.70
2019-01-03T08:31:28.795Z,6.60
2019-01-03T08:32:28.807Z,5.70
2019-01-03T08:33:28.822Z,6.00
2019-01-03T08:34:28.838Z,6.90
2019-01-03T08:35:28.852Z,8.50
2019-01-03T08:36:28.867Z,8.60
2019-01-03T08:37:28.879Z,6.30
2019-01-03T08:38:28.894Z,7.70
2019-01-03T08:39:28.953Z,12.60
2019-01-03T08:40:28.926Z,7.10
2019-01-03T08:41:28.933Z,6.90
2019-01-03T08:42:28.950Z,9.10
2019-01-03T08:43:28.961Z,9.50
2019-01-03T08:44:28.978Z,9.90
2019-01-03T08:45:28.991Z,9.10
2019-01-03T08:46:29.007Z,6.50
2019-01-03T08:47:29.020Z,8.70
2019-01-03T08:48:29.034Z,7.50
2019-01-03T08:49:29.051Z,9.80
2019-01-03T08:50:29.060Z,9.00
2019-01-03T08:51:29.078Z,10.70
2019-01-03T08:52:29.089Z,10.50
2019-01-03T08:53:29.104Z,9.30
2019-01-03T08:54:29.120Z,9.60
2019-01-03T08:55:29.134Z,11.30
2019-01-03T08:56:29.147Z,9.20
2019-01-03T08:57:29.159Z,12.90
2019-01-03T08:58:29.173Z,11.90
2019-01-03T08:59:29.191Z,9.20
2019-01-03T09:00:29.204Z,9.40
2019-01-03T09:01:29.215Z,10.30
2019-01-03T09:02:29.232Z,7.60
2019-01-03T09:03:29.246Z,8.20
2019-01-03T09:04:29.261Z,9.10
2019-01-03T09:05:29.274Z,9.10
2019-01-03T09:06:29.286Z,7.80
2019-01-03T09:07:29.300Z,8.90
2019-01-03T09:08:29.318Z,6.60
2019-01-03T09:09:29.330Z,11.50
2019-01-03T09:10:29.344Z,8.60
2019-01-03T09:11:29.359Z,5.60
2019-01-03T09:12:29.373Z,8.30
2019-01-03T09:13:29.388Z,7.30
2019-01-03T09:14:29.400Z,7.70
2019-01-03T09:15:29.414Z,9.40
2019-01-03T09:16:29.428Z,10.10
2019-01-03T09:17:29.443Z,6.10
2019-01-03T09:18:29.456Z,10.30
2019-01-03T09:19:29.474Z,8.70
2019-01-03T09:20:29.487Z,9.00
2019-01-03T09:21:29.498Z,9.40
2019-01-03T09:22:29.515Z,7.90
2019-01-03T09:23:29.536Z,10.90
2019-01-03T09:24:29.546Z,6.90
2019-01-03T09:25:29.558Z,10.00
2019-01-03T09:26:29.570Z,7.10
2019-01-03T09:27:29.585Z,7.30
2019-01-03T09:28:29.603Z,8.50
2019-01-03T09:29:29.613Z,6.50
2019-01-03T09:30:29.629Z,10.60
2019-01-03T09:31:29.645Z,13.00
2019-01-03T09:32:29.660Z,7.80
2019-01-03T09:33:29.672Z,10.20
2019-01-03T09:34:29.687Z,10.30
2019-01-03T09:35:29.701Z,12.00
2019-01-03T09:36:29.713Z,8.30
2019-01-03T09:37:29.726Z,6.00
2019-01-03T09:38:29.901Z,9.60
2019-01-03T09:39:29.759Z,5.20
2019-01-03T09:40:29.770Z,10.70
2019-01-03T09:41:29.786Z,6.60
2019-01-03T09:42:29.801Z,10.40
2019-01-03T09:43:29.813Z,10.50
2019-01-03T09:44:29.827Z,8.00
2019-01-03T09:45:29.841Z,7.80
2019-01-03T09:46:29.858Z,10.20
2019-01-03T09:47:29.873Z,12.30
2019-01-03T09:48:29.886Z,7.20
2019-01-03T09:49:29.900Z,6.10
2019-01-03T09:50:29.914Z,7.80
2019-01-03T09:51:29.932Z,7.20
2019-01-03T09:52:29.945Z,9.10
2019-01-03T09:53:29.964Z,11.90
2019-01-03T09:54:29.972Z,23.60
2019-01-03T09:55:29.986Z,9.90
2019-01-03T09:56:30.000Z,16.70
2019-01-03T09:57:30.014Z,30.20
2019-01-03T09:58:30.031Z,7.40
2019-01-03T09:59:30.042Z,7.00
2019-01-03T10:00:30.059Z,8.80
2019-01-03T10:01:30.073Z,5.70
2019-01-03T10:02:30.087Z,11.30
2019-01-03T10:03:30.101Z,8.30
2019-01-03T10:04:30.114Z,11.50
2019-01-03T10:05:30.129Z,9.00
2019-01-03T10:06:30.145Z,11.00
2019-01-03T10:07:30.161Z,9.00
2019-01-03T10:08:30.223Z,9.00
2019-01-03T10:09:30.186Z,8.00
2019-01-03T10:10:30.201Z,5.00
2019-01-03T10:11:30.215Z,6.80
2019-01-03T10:12:30.234Z,8.10
2019-01-03T10:13:30.244Z,6.30
2019-01-03T10:14:30.272Z,6.30
2019-01-03T10:15:30.274Z,5.90
2019-01-03T10:16:30.293Z,6.80
2019-01-03T10:17:30.302Z,8.40
2019-01-03T10:18:30.318Z,7.50
2019-01-03T10:19:30.335Z,9.50
2019-01-03T10:20:30.349Z,7.20
2019-01-03T10:21:30.361Z,10.60
2019-01-03T10:22:30.375Z,11.50
2019-01-03T10:23:30.478Z,8.20
2019-01-03T10:24:30.409Z,7.90
2019-01-03T10:25:30.418Z,14.30
2019-01-03T10:26:30.436Z,12.00
2019-01-03T10:27:30.450Z,10.50
2019-01-03T10:28:30.464Z,8.50
2019-01-03T10:29:30.478Z,5.00
2019-01-03T10:30:30.494Z,7.90
2019-01-03T10:31:30.509Z,5.10
2019-01-03T10:32:30.521Z,7.30
2019-01-03T10:33:30.542Z,11.00
2019-01-03T10:34:30.552Z,5.30
2019-01-03T10:35:30.565Z,8.30
2019-01-03T10:36:30.583Z,7.20
2019-01-03T10:37:30.595Z,5.30
2019-01-03T10:38:30.612Z,7.60
2019-01-03T10:39:30.730Z,10.10
2019-01-03T10:40:30.643Z,7.20
2019-01-03T10:41:30.769Z,9.50
2019-01-03T10:42:30.670Z,8.70
2019-01-03T10:43:30.684Z,8.70
2019-01-03T10:44:30.697Z,8.70
2019-01-03T10:45:30.713Z,6.00
2019-01-03T10:46:30.729Z,6.60
2019-01-03T10:47:30.741Z,6.50
2019-01-03T10:48:30.755Z,3.50
2019-01-03T10:49:30.845Z,6.90
2019-01-03T10:50:31.013Z,6.80
2019-01-03T10:51:30.805Z,7.60
2019-01-03T10:52:30.817Z,8.10
2019-01-03T10:53:30.828Z,5.10
2019-01-03T10:54:30.847Z,7.10
2019-01-03T10:56:30.875Z,6.90
2019-01-03T10:57:30.896Z,10.40
2019-01-03T10:58:30.904Z,6.50
2019-01-03T10:59:30.924Z,8.60
2019-01-03T11:00:30.934Z,6.30
2019-01-03T11:01:31.247Z,6.90
2019-01-03T11:02:30.966Z,7.40
2019-01-03T11:03:30.985Z,10.50
2019-01-03T11:04:30.991Z,7.40
2019-01-03T11:05:31.006Z,7.30
2019-01-03T11:06:31.022Z,9.10
2019-01-03T11:07:31.037Z,7.40
2019-01-03T11:08:31.051Z,7.10
2019-01-03T11:09:31.066Z,12.60
2019-01-03T11:10:31.082Z,10.10
2019-01-03T11:11:31.096Z,9.80
2019-01-03T11:12:31.111Z,7.30
2019-01-03T11:13:31.125Z,9.50
2019-01-03T11:14:31.142Z,5.20
2019-01-03T11:15:31.154Z,10.20
2019-01-03T11:16:31.169Z,8.40
2019-01-03T11:17:31.182Z,8.80
2019-01-03T11:18:31.199Z,5.60
2019-01-03T11:19:31.215Z,7.60
2019-01-03T11:20:31.229Z,9.10
2019-01-03T11:21:31.242Z,7.30
2019-01-03T11:22:31.258Z,5.40
2019-01-03T11:23:31.272Z,7.10
2019-01-03T11:24:31.289Z,7.00
2019-01-03T11:25:31.300Z,6.40
2019-01-03T11:26:31.318Z,6.40
2019-01-03T11:27:31.333Z,6.10
2019-01-03T11:28:31.349Z,4.60
2019-01-03T11:29:31.364Z,2.80
2019-01-03T11:30:31.376Z,6.80
2019-01-03T11:31:31.392Z,7.50
2019-01-03T11:32:31.405Z,6.10
2019-01-03T11:33:31.723Z,7.30
2019-01-03T11:34:31.434Z,6.30
2019-01-03T11:35:31.451Z,8.60
2019-01-03T11:36:31.467Z,4.90
2019-01-03T11:37:31.481Z,5.20
2019-01-03T11:38:31.496Z,5.40
2019-01-03T11:39:31.513Z,9.80
2019-01-03T11:40:31.524Z,6.80
2019-01-03T11:41:31.538Z,8.10
2019-01-03T11:42:31.553Z,6.50
2019-01-03T11:43:31.570Z,5.70
2019-01-03T11:44:31.584Z,6.80
2019-01-03T11:45:31.597Z,6.50
2019-01-03T11:46:31.616Z,7.80
2019-01-03T11:47:31.628Z,8.60
2019-01-03T11:48:31.646Z,7.10
2019-01-03T11:49:31.659Z,5.20
2019-01-03T11:50:31.675Z,8.60
2019-01-03T11:51:31.688Z,9.40
2019-01-03T11:52:31.703Z,10.70
2019-01-03T11:53:31.717Z,7.60
2019-01-03T11:54:31.735Z,9.30
2019-01-03T11:55:31.747Z,9.70
2019-01-03T11:56:31.763Z,6.60
2019-01-03T11:57:31.777Z,8.50
2019-01-03T11:58:31.796Z,5.20
2019-01-03T11:59:31.806Z,9.50
2019-01-03T12:00:31.830Z,9.70
2019-01-03T12:01:31.844Z,8.90
2019-01-03T12:02:31.854Z,6.20
2019-01-03T12:03:31.867Z,6.30
2019-01-03T12:04:31.882Z,7.00
2019-01-03T12:05:32.097Z,6.60
2019-01-03T12:06:32.212Z,7.40
2019-01-03T12:07:31.929Z,9.70
2019-01-03T12:08:31.945Z,8.60
2019-01-03T12:09:31.956Z,9.90
2019-01-03T12:10:31.974Z,7.60
2019-01-03T12:11:31.987Z,10.20
2019-01-03T12:12:32.005Z,5.30
2019-01-03T12:13:32.020Z,5.30
2019-01-03T12:14:32.034Z,7.90
2019-01-03T12:15:32.056Z,7.90
2019-01-03T12:16:32.063Z,8.60
2019-01-03T12:17:32.079Z,7.60
2019-01-03T12:18:32.093Z,7.40
2019-01-03T12:19:32.107Z,6.00
2019-01-03T12:20:32.121Z,5.50
2019-01-03T12:21:32.137Z,4.30
2019-01-03T12:22:32.151Z,5.70
2019-01-03T12:23:32.179Z,10.50
2019-01-03T12:24:32.183Z,6.40
2019-01-03T12:25:32.197Z,10.60
2019-01-03T12:26:32.210Z,6.90
2019-01-03T12:27:32.228Z,6.70
2019-01-03T12:28:32.244Z,6.90
2019-01-03T12:29:32.254Z,11.70
2019-01-03T12:30:32.303Z,11.00
2019-01-03T12:31:32.287Z,7.10
2019-01-03T12:32:32.304Z,8.00
2019-01-03T12:33:32.318Z,6.00
2019-01-03T12:34:32.329Z,6.40
2019-01-03T12:35:32.346Z,12.70
2019-01-03T12:36:32.362Z,13.10
2019-01-03T12:37:32.377Z,10.10
2019-01-03T12:38:32.410Z,5.50
2019-01-03T12:39:32.407Z,5.50
2019-01-03T12:40:32.420Z,5.20
2019-01-03T12:41:32.435Z,5.20
2019-01-03T12:42:32.451Z,9.20
2019-01-03T12:43:32.467Z,6.30
2019-01-03T12:44:32.526Z,5.00
2019-01-03T12:45:32.498Z,7.40
2019-01-03T12:46:32.510Z,5.80
2019-01-03T12:47:32.528Z,6.60
2019-01-03T12:48:32.543Z,4.90
2019-01-03T12:49:32.555Z,6.50
2019-01-03T12:50:32.571Z,5.00
2019-01-03T12:51:32.590Z,7.40
2019-01-03T12:52:32.604Z,6.90
2019-01-03T12:53:32.615Z,6.20
2019-01-03T12:54:32.630Z,5.00
2019-01-03T12:55:32.645Z,6.30
2019-01-03T12:56:32.663Z,6.80
2019-01-03T12:57:32.676Z,8.20
2019-01-03T12:58:32.691Z,5.90
2019-01-03T12:59:32.709Z,4.20
2019-01-03T13:00:32.721Z,9.00
2019-01-03T13:01:32.738Z,4.90
2019-01-03T13:02:32.753Z,5.70
2019-01-03T13:03:32.768Z,6.90
2019-01-03T13:04:32.785Z,6.80
2019-01-03T13:05:32.798Z,7.60